sensor_id;sensor_type;location;lat;lon;timestamp;pressure;altitude;pressure_sealevel;temperature;humidity
44044;BME280;29709;52.396;16.796;2024-02-26T00:00:02;100671.85;;;4.73;78.98
44044;BME280;29709;52.396;16.796;2024-02-26T00:03:16;100663.76;;;4.62;79.27
44044;BME280;29709;52.396;16.796;2024-02-26T00:06:31;100663.03;;;4.60;79.18
44044;BME280;29709;52.396;16.796;2024-02-26T00:09:45;100670.72;;;4.55;78.43
44044;BME280;29709;52.396;16.796;2024-02-26T00:12:59;100673.85;;;4.50;78.84
44044;BME280;29709;52.396;16.796;2024-02-26T00:16:13;100675.07;;;4.25;81.57
44044;BME280;29709;52.396;16.796;2024-02-26T00:19:28;100676.43;;;4.31;79.39
44044;BME280;29709;52.396;16.796;2024-02-26T00:22:42;100670.44;;;4.37;83.05
44044;BME280;29709;52.396;16.796;2024-02-26T00:25:55;100669.06;;;4.43;83.02
44044;BME280;29709;52.396;16.796;2024-02-26T00:29:09;100671.57;;;4.34;82.81
44044;BME280;29709;52.396;16.796;2024-02-26T00:32:22;100681.94;;;4.41;82.14
44044;BME280;29709;52.396;16.796;2024-02-26T00:35:36;100669.65;;;4.46;80.63
44044;BME280;29709;52.396;16.796;2024-02-26T00:38:49;100678.49;;;4.39;81.14
44044;BME280;29709;52.396;16.796;2024-02-26T00:42:05;100668.98;;;4.33;80.53
44044;BME280;29709;52.396;16.796;2024-02-26T00:45:19;100671.98;;;4.30;80.90
44044;BME280;29709;52.396;16.796;2024-02-26T00:48:32;100668.45;;;4.18;81.16
44044;BME280;29709;52.396;16.796;2024-02-26T00:51:45;100669.83;;;4.13;82.09
44044;BME280;29709;52.396;16.796;2024-02-26T00:54:58;100673.41;;;4.13;82.43
44044;BME280;29709;52.396;16.796;2024-02-26T00:58:14;100669.55;;;4.16;82.39
44044;BME280;29709;52.396;16.796;2024-02-26T01:01:27;100673.03;;;4.18;82.21
44044;BME280;29709;52.396;16.796;2024-02-26T01:04:41;100665.52;;;4.10;81.14
44044;BME280;29709;52.396;16.796;2024-02-26T01:07:54;100667.32;;;3.89;80.52
44044;BME280;29709;52.396;16.796;2024-02-26T01:11:07;100668.45;;;3.86;82.02
44044;BME280;29709;52.396;16.796;2024-02-26T01:14:20;100677.21;;;3.90;82.32
44044;BME280;29709;52.396;16.796;2024-02-26T01:17:34;100667.42;;;3.98;81.22
44044;BME280;29709;52.396;16.796;2024-02-26T01:20:47;100674.84;;;3.96;80.57
44044;BME280;29709;52.396;16.796;2024-02-26T01:24:01;100673.49;;;3.91;80.50
44044;BME280;29709;52.396;16.796;2024-02-26T01:27:17;100664.61;;;3.89;79.89
44044;BME280;29709;52.396;16.796;2024-02-26T01:30:31;100660.93;;;3.79;80.26
44044;BME280;29709;52.396;16.796;2024-02-26T01:33:44;100663.65;;;3.79;80.12
44044;BME280;29709;52.396;16.796;2024-02-26T01:36:58;100663.16;;;3.73;81.06
44044;BME280;29709;52.396;16.796;2024-02-26T01:40:12;100662.70;;;3.68;80.89
44044;BME280;29709;52.396;16.796;2024-02-26T01:43:33;100661.10;;;3.66;81.07
44044;BME280;29709;52.396;16.796;2024-02-26T01:46:47;100660.97;;;3.67;81.65
44044;BME280;29709;52.396;16.796;2024-02-26T01:50:01;100659.70;;;3.71;83.20
44044;BME280;29709;52.396;16.796;2024-02-26T01:53:16;100655.77;;;3.75;80.55
44044;BME280;29709;52.396;16.796;2024-02-26T01:56:30;100657.38;;;3.67;81.65
44044;BME280;29709;52.396;16.796;2024-02-26T01:59:45;100660.97;;;3.67;81.18
44044;BME280;29709;52.396;16.796;2024-02-26T02:02:58;100658.12;;;3.69;81.35
44044;BME280;29709;52.396;16.796;2024-02-26T02:06:12;100662.83;;;3.67;82.35
44044;BME280;29709;52.396;16.796;2024-02-26T02:09:27;100667.27;;;3.68;82.19
44044;BME280;29709;52.396;16.796;2024-02-26T02:12:40;100669.12;;;3.67;81.75
44044;BME280;29709;52.396;16.796;2024-02-26T02:15:54;100666.53;;;3.66;80.92
44044;BME280;29709;52.396;16.796;2024-02-26T02:19:07;100664.55;;;3.68;80.22
44044;BME280;29709;52.396;16.796;2024-02-26T02:22:20;100660.60;;;3.61;80.41
44044;BME280;29709;52.396;16.796;2024-02-26T02:25:34;100655.43;;;3.58;80.54
44044;BME280;29709;52.396;16.796;2024-02-26T02:28:49;100650.76;;;3.48;80.82
44044;BME280;29709;52.396;16.796;2024-02-26T02:32:03;100655.20;;;3.50;80.81
44044;BME280;29709;52.396;16.796;2024-02-26T02:35:17;100653.10;;;3.42;81.15
44044;BME280;29709;52.396;16.796;2024-02-26T02:38:31;100655.09;;;3.40;82.20
44044;BME280;29709;52.396;16.796;2024-02-26T02:41:46;100654.73;;;3.44;81.56
44044;BME280;29709;52.396;16.796;2024-02-26T02:45:01;100656.68;;;3.42;81.82
44044;BME280;29709;52.396;16.796;2024-02-26T02:48:14;100644.35;;;3.38;81.91
44044;BME280;29709;52.396;16.796;2024-02-26T02:51:27;100647.68;;;3.31;80.96
44044;BME280;29709;52.396;16.796;2024-02-26T02:54:41;100635.96;;;3.30;84.93
44044;BME280;29709;52.396;16.796;2024-02-26T02:57:55;100630.77;;;3.38;84.42
44044;BME280;29709;52.396;16.796;2024-02-26T03:01:09;100628.65;;;3.42;81.46
44044;BME280;29709;52.396;16.796;2024-02-26T03:04:22;100622.02;;;3.35;83.44
44044;BME280;29709;52.396;16.796;2024-02-26T03:07:36;100624.73;;;3.35;83.63
44044;BME280;29709;52.396;16.796;2024-02-26T03:10:49;100631.62;;;3.39;84.03
44044;BME280;29709;52.396;16.796;2024-02-26T03:14:02;100636.04;;;3.51;84.40
44044;BME280;29709;52.396;16.796;2024-02-26T03:20:58;100642.09;;;3.66;83.57
44044;BME280;29709;52.396;16.796;2024-02-26T03:24:12;100641.68;;;3.70;81.80
44044;BME280;29709;52.396;16.796;2024-02-26T03:27:25;100629.59;;;3.63;81.65
44044;BME280;29709;52.396;16.796;2024-02-26T03:30:39;100635.42;;;3.59;81.14
44044;BME280;29709;52.396;16.796;2024-02-26T03:33:53;100634.92;;;3.54;80.58
44044;BME280;29709;52.396;16.796;2024-02-26T03:37:07;100637.07;;;3.39;81.26
44044;BME280;29709;52.396;16.796;2024-02-26T03:40:26;100637.32;;;3.36;80.85
44044;BME280;29709;52.396;16.796;2024-02-26T03:43:39;100627.95;;;3.29;81.23
44044;BME280;29709;52.396;16.796;2024-02-26T03:46:52;100638.07;;;3.27;80.82
44044;BME280;29709;52.396;16.796;2024-02-26T03:50:07;100633.64;;;3.26;80.92
44044;BME280;29709;52.396;16.796;2024-02-26T03:53:20;100647.68;;;3.31;80.80
44044;BME280;29709;52.396;16.796;2024-02-26T03:56:34;100644.84;;;3.32;80.27
44044;BME280;29709;52.396;16.796;2024-02-26T03:59:47;100643.25;;;3.30;80.13
44044;BME280;29709;52.396;16.796;2024-02-26T04:03:00;100642.65;;;3.26;79.62
44044;BME280;29709;52.396;16.796;2024-02-26T04:06:13;100653.00;;;3.21;79.84
44044;BME280;29709;52.396;16.796;2024-02-26T04:09:33;100651.67;;;3.15;79.79
44044;BME280;29709;52.396;16.796;2024-02-26T04:12:47;100642.89;;;3.12;79.93
44044;BME280;29709;52.396;16.796;2024-02-26T04:16:00;100644.26;;;3.06;80.11
44044;BME280;29709;52.396;16.796;2024-02-26T04:19:19;100646.00;;;2.85;80.99
44044;BME280;29709;52.396;16.796;2024-02-26T04:22:33;100659.44;;;2.86;82.90
44044;BME280;29709;52.396;16.796;2024-02-26T04:25:47;100659.19;;;2.89;83.55
44044;BME280;29709;52.396;16.796;2024-02-26T04:29:00;100660.05;;;2.90;82.03
44044;BME280;29709;52.396;16.796;2024-02-26T04:32:14;100658.45;;;2.87;84.08
44044;BME280;29709;52.396;16.796;2024-02-26T04:35:27;100662.02;;;2.99;83.28
44044;BME280;29709;52.396;16.796;2024-02-26T04:38:40;100651.80;;;3.03;83.38
44044;BME280;29709;52.396;16.796;2024-02-26T04:41:53;100654.75;;;3.00;83.82
44044;BME280;29709;52.396;16.796;2024-02-26T04:45:06;100659.09;;;3.02;83.61
44044;BME280;29709;52.396;16.796;2024-02-26T04:48:21;100655.26;;;3.05;82.76
44044;BME280;29709;52.396;16.796;2024-02-26T04:51:36;100659.19;;;3.01;82.91
44044;BME280;29709;52.396;16.796;2024-02-26T04:54:50;100658.19;;;3.02;83.57
44044;BME280;29709;52.396;16.796;2024-02-26T04:58:03;100663.75;;;3.00;81.43
44044;BME280;29709;52.396;16.796;2024-02-26T05:01:17;100660.05;;;3.01;84.45
44044;BME280;29709;52.396;16.796;2024-02-26T05:04:31;100667.84;;;3.06;83.38
44044;BME280;29709;52.396;16.796;2024-02-26T05:07:44;100672.41;;;3.05;82.70
44044;BME280;29709;52.396;16.796;2024-02-26T05:10:58;100655.73;;;3.10;82.71
44044;BME280;29709;52.396;16.796;2024-02-26T05:14:11;100656.47;;;3.12;83.00
44044;BME280;29709;52.396;16.796;2024-02-26T05:17:24;100655.60;;;3.11;82.71
44044;BME280;29709;52.396;16.796;2024-02-26T05:20:37;100662.66;;;3.14;82.03
44044;BME280;29709;52.396;16.796;2024-02-26T05:23:51;100667.10;;;3.15;81.83
44044;BME280;29709;52.396;16.796;2024-02-26T05:27:04;100680.81;;;3.13;80.79
44044;BME280;29709;52.396;16.796;2024-02-26T05:30:17;100685.24;;;3.03;81.64
44044;BME280;29709;52.396;16.796;2024-02-26T05:33:30;100687.45;;;2.98;81.70
44044;BME280;29709;52.396;16.796;2024-02-26T05:36:44;100689.30;;;2.98;81.09
44044;BME280;29709;52.396;16.796;2024-02-26T05:39:57;100694.00;;;2.96;81.41
44044;BME280;29709;52.396;16.796;2024-02-26T05:43:11;100700.64;;;2.92;80.57
44044;BME280;29709;52.396;16.796;2024-02-26T05:46:24;100712.87;;;2.86;81.21
44044;BME280;29709;52.396;16.796;2024-02-26T05:49:39;100701.48;;;2.81;81.44
44044;BME280;29709;52.396;16.796;2024-02-26T05:52:53;100695.59;;;2.87;82.26
44044;BME280;29709;52.396;16.796;2024-02-26T05:56:06;100700.77;;;2.90;82.34
44044;BME280;29709;52.396;16.796;2024-02-26T05:59:19;100704.98;;;2.94;81.88
44044;BME280;29709;52.396;16.796;2024-02-26T06:02:32;100686.71;;;2.96;81.72
44044;BME280;29709;52.396;16.796;2024-02-26T06:05:46;100691.89;;;2.99;82.00
44044;BME280;29709;52.396;16.796;2024-02-26T06:08:59;100693.40;;;3.03;82.63
44044;BME280;29709;52.396;16.796;2024-02-26T06:12:12;100687.83;;;3.05;83.70
44044;BME280;29709;52.396;16.796;2024-02-26T06:15:25;100691.89;;;3.10;82.77
44044;BME280;29709;52.396;16.796;2024-02-26T06:18:39;100690.30;;;3.19;83.24
44044;BME280;29709;52.396;16.796;2024-02-26T06:21:52;100688.44;;;3.31;82.48
44044;BME280;29709;52.396;16.796;2024-02-26T06:25:05;100696.22;;;3.35;84.12
44044;BME280;29709;52.396;16.796;2024-02-26T06:28:19;100694.96;;;3.51;83.84
44044;BME280;29709;52.396;16.796;2024-02-26T06:31:32;100698.62;;;3.72;83.27
44044;BME280;29709;52.396;16.796;2024-02-26T06:34:45;100694.37;;;3.90;83.15
44044;BME280;29709;52.396;16.796;2024-02-26T06:37:59;100699.88;;;4.11;85.27
44044;BME280;29709;52.396;16.796;2024-02-26T06:41:12;100702.41;;;4.24;84.69
44044;BME280;29709;52.396;16.796;2024-02-26T06:44:26;100709.52;;;4.36;83.26
44044;BME280;29709;52.396;16.796;2024-02-26T06:47:44;100701.93;;;4.51;83.33
44044;BME280;29709;52.396;16.796;2024-02-26T06:50:57;100717.12;;;4.74;83.51
44044;BME280;29709;52.396;16.796;2024-02-26T06:54:10;100713.46;;;4.85;83.47
44044;BME280;29709;52.396;16.796;2024-02-26T06:57:23;100715.84;;;4.99;82.95
44044;BME280;29709;52.396;16.796;2024-02-26T07:00:37;100714.18;;;5.08;81.64
44044;BME280;29709;52.396;16.796;2024-02-26T07:03:50;100721.04;;;5.02;83.07
44044;BME280;29709;52.396;16.796;2024-02-26T07:07:03;100715.89;;;5.09;83.03
44044;BME280;29709;52.396;16.796;2024-02-26T07:10:17;100723.41;;;5.16;84.22
44044;BME280;29709;52.396;16.796;2024-02-26T07:13:30;100720.53;;;5.18;82.39
44044;BME280;29709;52.396;16.796;2024-02-26T07:16:43;100710.84;;;5.25;82.70
44044;BME280;29709;52.396;16.796;2024-02-26T07:19:56;100721.05;;;5.33;84.26
44044;BME280;29709;52.396;16.796;2024-02-26T07:23:10;100715.36;;;5.45;83.61
44044;BME280;29709;52.396;16.796;2024-02-26T07:26:23;100709.09;;;5.55;83.51
44044;BME280;29709;52.396;16.796;2024-02-26T07:29:38;100711.84;;;5.64;83.84
44044;BME280;29709;52.396;16.796;2024-02-26T07:32:52;100713.46;;;5.76;84.10
44044;BME280;29709;52.396;16.796;2024-02-26T07:36:05;100704.70;;;5.83;82.34
44044;BME280;29709;52.396;16.796;2024-02-26T07:39:19;100703.29;;;5.88;84.11
44044;BME280;29709;52.396;16.796;2024-02-26T07:42:32;100705.79;;;6.11;84.93
44044;BME280;29709;52.396;16.796;2024-02-26T07:45:45;100704.80;;;6.31;84.59
44044;BME280;29709;52.396;16.796;2024-02-26T07:48:58;100704.20;;;6.56;85.19
44044;BME280;29709;52.396;16.796;2024-02-26T07:52:11;100705.35;;;6.73;83.01
44044;BME280;29709;52.396;16.796;2024-02-26T07:55:26;100716.56;;;6.80;84.20
44044;BME280;29709;52.396;16.796;2024-02-26T07:58:39;100722.71;;;7.01;85.08
44044;BME280;29709;52.396;16.796;2024-02-26T08:01:53;100730.40;;;7.25;83.89
44044;BME280;29709;52.396;16.796;2024-02-26T08:05:06;100729.81;;;7.31;83.09
44044;BME280;29709;52.396;16.796;2024-02-26T08:08:20;100738.38;;;7.46;83.59
44044;BME280;29709;52.396;16.796;2024-02-26T08:11:33;100735.02;;;7.62;83.20
44044;BME280;29709;52.396;16.796;2024-02-26T08:14:46;100731.18;;;7.82;82.99
44044;BME280;29709;52.396;16.796;2024-02-26T08:18:00;100722.98;;;8.00;83.00
44044;BME280;29709;52.396;16.796;2024-02-26T08:21:16;100729.42;;;8.08;82.46
44044;BME280;29709;52.396;16.796;2024-02-26T08:24:29;100723.88;;;8.18;83.44
44044;BME280;29709;52.396;16.796;2024-02-26T08:27:42;100727.38;;;8.38;82.61
44044;BME280;29709;52.396;16.796;2024-02-26T08:30:55;100733.88;;;8.55;81.90
44044;BME280;29709;52.396;16.796;2024-02-26T08:34:09;100722.36;;;8.69;82.01
44044;BME280;29709;52.396;16.796;2024-02-26T08:37:22;100726.73;;;8.80;81.38
44044;BME280;29709;52.396;16.796;2024-02-26T08:40:35;100729.91;;;8.93;81.23
44044;BME280;29709;52.396;16.796;2024-02-26T08:43:49;100735.82;;;9.06;80.55
44044;BME280;29709;52.396;16.796;2024-02-26T08:47:02;100735.95;;;9.22;80.26
44044;BME280;29709;52.396;16.796;2024-02-26T08:50:15;100734.48;;;9.36;79.75
44044;BME280;29709;52.396;16.796;2024-02-26T08:53:29;100735.40;;;9.45;79.35
44044;BME280;29709;52.396;16.796;2024-02-26T08:56:42;100732.37;;;9.56;78.47
44044;BME280;29709;52.396;16.796;2024-02-26T08:59:55;100732.94;;;9.60;77.84
44044;BME280;29709;52.396;16.796;2024-02-26T09:03:08;100729.21;;;9.77;77.86
44044;BME280;29709;52.396;16.796;2024-02-26T09:06:22;100731.18;;;9.93;77.45
44044;BME280;29709;52.396;16.796;2024-02-26T09:09:36;100736.20;;;10.05;76.77
44044;BME280;29709;52.396;16.796;2024-02-26T09:12:49;100727.65;;;10.17;76.60
44044;BME280;29709;52.396;16.796;2024-02-26T09:16:02;100732.17;;;10.26;75.52
44044;BME280;29709;52.396;16.796;2024-02-26T09:19:16;100735.64;;;10.44;75.90
44044;BME280;29709;52.396;16.796;2024-02-26T09:22:29;100725.36;;;10.54;74.67
44044;BME280;29709;52.396;16.796;2024-02-26T09:25:42;100722.77;;;10.61;74.55
44044;BME280;29709;52.396;16.796;2024-02-26T09:28:55;100717.65;;;10.74;74.47
44044;BME280;29709;52.396;16.796;2024-02-26T09:32:09;100719.70;;;10.88;73.89
44044;BME280;29709;52.396;16.796;2024-02-26T09:35:22;100719.85;;;11.03;73.84
44044;BME280;29709;52.396;16.796;2024-02-26T09:38:36;100713.84;;;11.16;72.36
44044;BME280;29709;52.396;16.796;2024-02-26T09:41:52;100725.33;;;11.27;72.58
44044;BME280;29709;52.396;16.796;2024-02-26T09:45:07;100723.25;;;11.38;72.25
44044;BME280;29709;52.396;16.796;2024-02-26T09:48:24;100724.70;;;11.65;71.94
44044;BME280;29709;52.396;16.796;2024-02-26T09:51:38;100729.64;;;11.77;71.62
44044;BME280;29709;52.396;16.796;2024-02-26T09:54:52;100731.16;;;11.96;71.81
44044;BME280;29709;52.396;16.796;2024-02-26T09:58:05;100739.16;;;12.14;70.93
44044;BME280;29709;52.396;16.796;2024-02-26T10:01:20;100727.92;;;12.24;71.32
44044;BME280;29709;52.396;16.796;2024-02-26T10:04:34;100727.89;;;12.32;69.98
44044;BME280;29709;52.396;16.796;2024-02-26T10:07:48;100720.06;;;12.43;70.37
44044;BME280;29709;52.396;16.796;2024-02-26T10:11:01;100717.11;;;12.45;69.12
44044;BME280;29709;52.396;16.796;2024-02-26T10:14:15;100721.15;;;12.57;69.23
44044;BME280;29709;52.396;16.796;2024-02-26T10:17:30;100713.31;;;12.69;69.50
44044;BME280;29709;52.396;16.796;2024-02-26T10:24:13;100724.86;;;12.73;67.76
44044;BME280;29709;52.396;16.796;2024-02-26T10:27:28;100722.09;;;12.73;67.46
44044;BME280;29709;52.396;16.796;2024-02-26T10:30:42;100720.86;;;12.75;67.50
44044;BME280;29709;52.396;16.796;2024-02-26T10:33:55;100724.67;;;12.74;67.06
44044;BME280;29709;52.396;16.796;2024-02-26T10:37:09;100726.47;;;12.82;67.11
44044;BME280;29709;52.396;16.796;2024-02-26T10:40:23;100718.27;;;12.96;67.29
44044;BME280;29709;52.396;16.796;2024-02-26T10:43:36;100721.30;;;13.01;67.22
44044;BME280;29709;52.396;16.796;2024-02-26T10:46:49;100721.44;;;13.08;67.16
44044;BME280;29709;52.396;16.796;2024-02-26T10:50:06;100725.48;;;13.20;66.91
44044;BME280;29709;52.396;16.796;2024-02-26T10:53:23;100723.31;;;13.31;66.78
44044;BME280;29709;52.396;16.796;2024-02-26T10:56:41;100723.81;;;13.34;65.94
44044;BME280;29709;52.396;16.796;2024-02-26T10:59:56;100732.21;;;13.18;65.77
44044;BME280;29709;52.396;16.796;2024-02-26T11:03:11;100735.28;;;13.23;66.20
44044;BME280;29709;52.396;16.796;2024-02-26T11:06:28;100724.74;;;13.26;65.56
44044;BME280;29709;52.396;16.796;2024-02-26T11:09:43;100724.48;;;13.36;66.00
44044;BME280;29709;52.396;16.796;2024-02-26T11:13:05;100724.40;;;13.59;66.16
44044;BME280;29709;52.396;16.796;2024-02-26T11:16:21;100714.95;;;13.53;65.08
44044;BME280;29709;52.396;16.796;2024-02-26T11:19:36;100724.55;;;13.43;64.72
44044;BME280;29709;52.396;16.796;2024-02-26T11:22:50;100715.80;;;13.39;65.30
44044;BME280;29709;52.396;16.796;2024-02-26T11:26:05;100712.30;;;13.45;65.78
44044;BME280;29709;52.396;16.796;2024-02-26T11:29:22;100710.59;;;13.59;65.82
44044;BME280;29709;52.396;16.796;2024-02-26T11:32:36;100708.11;;;13.64;65.23
44044;BME280;29709;52.396;16.796;2024-02-26T11:35:50;100706.09;;;13.73;64.90
44044;BME280;29709;52.396;16.796;2024-02-26T11:39:04;100706.77;;;13.75;64.29
44044;BME280;29709;52.396;16.796;2024-02-26T11:42:17;100704.30;;;13.80;64.17
44044;BME280;29709;52.396;16.796;2024-02-26T11:49:29;100707.62;;;13.75;64.15
44044;BME280;29709;52.396;16.796;2024-02-26T11:52:21;100710.19;;;13.92;64.18
44044;BME280;29709;52.396;16.796;2024-02-26T11:55:35;100702.26;;;14.03;63.65
44044;BME280;29709;52.396;16.796;2024-02-26T11:58:52;100711.30;;;14.12;62.70
44044;BME280;29709;52.396;16.796;2024-02-26T12:02:07;100701.10;;;14.12;62.80
44044;BME280;29709;52.396;16.796;2024-02-26T12:05:22;100713.21;;;14.11;62.83
44044;BME280;29709;52.396;16.796;2024-02-26T12:08:44;100696.78;;;14.25;62.41
44044;BME280;29709;52.396;16.796;2024-02-26T12:11:57;100703.95;;;14.19;61.86
44044;BME280;29709;52.396;16.796;2024-02-26T12:15:11;100698.34;;;14.12;62.11
44044;BME280;29709;52.396;16.796;2024-02-26T12:18:26;100701.77;;;14.14;61.97
44044;BME280;29709;52.396;16.796;2024-02-26T12:21:42;100707.79;;;14.03;61.64
44044;BME280;29709;52.396;16.796;2024-02-26T12:24:59;100708.19;;;14.00;61.80
44044;BME280;29709;52.396;16.796;2024-02-26T12:28:16;100708.84;;;14.02;62.05
44044;BME280;29709;52.396;16.796;2024-02-26T12:31:29;100710.84;;;14.08;61.87
44044;BME280;29709;52.396;16.796;2024-02-26T12:34:44;100719.34;;;14.07;62.04
44044;BME280;29709;52.396;16.796;2024-02-26T12:37:58;100711.40;;;14.19;61.96
44044;BME280;29709;52.396;16.796;2024-02-26T12:41:14;100705.58;;;14.13;61.97
44044;BME280;29709;52.396;16.796;2024-02-26T12:44:27;100715.13;;;14.11;61.45
44044;BME280;29709;52.396;16.796;2024-02-26T12:47:42;100710.64;;;14.10;61.51
44044;BME280;29709;52.396;16.796;2024-02-26T12:50:55;100702.05;;;14.20;61.28
44044;BME280;29709;52.396;16.796;2024-02-26T12:54:09;100702.91;;;14.20;61.14
44044;BME280;29709;52.396;16.796;2024-02-26T12:57:23;100704.06;;;14.11;60.39
44044;BME280;29709;52.396;16.796;2024-02-26T13:00:37;100714.33;;;14.17;61.19
44044;BME280;29709;52.396;16.796;2024-02-26T13:03:52;100701.85;;;14.21;60.53
44044;BME280;29709;52.396;16.796;2024-02-26T13:07:06;100705.26;;;14.23;60.99
44044;BME280;29709;52.396;16.796;2024-02-26T13:10:19;100707.84;;;14.25;61.22
44044;BME280;29709;52.396;16.796;2024-02-26T13:13:34;100715.16;;;14.32;61.07
44044;BME280;29709;52.396;16.796;2024-02-26T13:16:57;100719.55;;;14.27;60.38
44044;BME280;29709;52.396;16.796;2024-02-26T13:20:11;100718.13;;;14.31;61.06
44044;BME280;29709;52.396;16.796;2024-02-26T13:23:25;100716.73;;;14.20;59.29
44044;BME280;29709;52.396;16.796;2024-02-26T13:26:38;100715.27;;;14.24;60.36
44044;BME280;29709;52.396;16.796;2024-02-26T13:30:04;100716.22;;;14.31;60.06
44044;BME280;29709;52.396;16.796;2024-02-26T13:33:19;100721.09;;;14.29;60.25
44044;BME280;29709;52.396;16.796;2024-02-26T13:36:32;100731.86;;;14.24;60.09
44044;BME280;29709;52.396;16.796;2024-02-26T13:39:45;100722.50;;;14.25;59.92
44044;BME280;29709;52.396;16.796;2024-02-26T13:42:59;100723.17;;;14.27;60.80
44044;BME280;29709;52.396;16.796;2024-02-26T13:46:12;100714.02;;;14.27;60.37
44044;BME280;29709;52.396;16.796;2024-02-26T13:49:28;100726.62;;;14.29;59.67
44044;BME280;29709;52.396;16.796;2024-02-26T13:52:41;100739.75;;;14.27;60.29
44044;BME280;29709;52.396;16.796;2024-02-26T13:55:56;100736.82;;;14.29;60.88
44044;BME280;29709;52.396;16.796;2024-02-26T13:59:13;100729.38;;;14.29;60.67
44044;BME280;29709;52.396;16.796;2024-02-26T14:02:26;100732.80;;;14.31;60.81
44044;BME280;29709;52.396;16.796;2024-02-26T14:05:40;100733.45;;;14.33;59.47
44044;BME280;29709;52.396;16.796;2024-02-26T14:08:53;100726.81;;;14.28;60.75
44044;BME280;29709;52.396;16.796;2024-02-26T14:12:41;100734.41;;;14.26;61.03
44044;BME280;29709;52.396;16.796;2024-02-26T14:15:55;100731.46;;;14.27;61.02
44044;BME280;29709;52.396;16.796;2024-02-26T14:19:09;100725.36;;;14.32;60.55
44044;BME280;29709;52.396;16.796;2024-02-26T14:22:22;100749.59;;;14.30;60.00
44044;BME280;29709;52.396;16.796;2024-02-26T14:25:36;100735.17;;;14.34;60.71
44044;BME280;29709;52.396;16.796;2024-02-26T14:28:49;100738.52;;;14.44;60.24
44044;BME280;29709;52.396;16.796;2024-02-26T14:32:04;100737.74;;;14.51;59.99
44044;BME280;29709;52.396;16.796;2024-02-26T14:35:17;100732.78;;;14.46;59.64
44044;BME280;29709;52.396;16.796;2024-02-26T14:38:30;100728.47;;;14.43;60.02
44044;BME280;29709;52.396;16.796;2024-02-26T14:41:44;100732.78;;;14.46;60.86
44044;BME280;29709;52.396;16.796;2024-02-26T14:44:57;100733.44;;;14.48;61.22
44044;BME280;29709;52.396;16.796;2024-02-26T14:48:10;100730.30;;;14.36;59.89
44044;BME280;29709;52.396;16.796;2024-02-26T14:51:24;100731.55;;;14.34;60.18
44044;BME280;29709;52.396;16.796;2024-02-26T14:54:37;100733.06;;;14.36;60.65
44044;BME280;29709;52.396;16.796;2024-02-26T14:57:52;100751.50;;;14.29;60.01
44044;BME280;29709;52.396;16.796;2024-02-26T15:01:05;100752.55;;;14.28;60.75
44044;BME280;29709;52.396;16.796;2024-02-26T15:04:18;100752.47;;;14.22;60.47
44044;BME280;29709;52.396;16.796;2024-02-26T15:07:31;100749.04;;;14.20;60.67
44044;BME280;29709;52.396;16.796;2024-02-26T15:10:45;100750.65;;;14.14;60.68
44044;BME280;29709;52.396;16.796;2024-02-26T15:14:01;100749.73;;;14.07;60.75
44044;BME280;29709;52.396;16.796;2024-02-26T15:17:14;100751.34;;;14.01;61.06
44044;BME280;29709;52.396;16.796;2024-02-26T15:20:27;100756.41;;;13.98;61.22
44044;BME280;29709;52.396;16.796;2024-02-26T15:23:44;100763.54;;;13.92;61.33
44044;BME280;29709;52.396;16.796;2024-02-26T15:26:58;100763.05;;;13.74;61.34
44044;BME280;29709;52.396;16.796;2024-02-26T15:30:11;100764.30;;;13.56;61.92
44044;BME280;29709;52.396;16.796;2024-02-26T15:33:25;100763.71;;;13.46;62.38
44044;BME280;29709;52.396;16.796;2024-02-26T15:36:38;100764.45;;;13.40;62.48
44044;BME280;29709;52.396;16.796;2024-02-26T15:39:51;100769.69;;;13.35;62.48
44044;BME280;29709;52.396;16.796;2024-02-26T15:43:05;100762.81;;;13.31;62.87
44044;BME280;29709;52.396;16.796;2024-02-26T15:46:18;100771.85;;;13.25;62.83
44044;BME280;29709;52.396;16.796;2024-02-26T15:49:32;100776.02;;;13.21;62.92
44044;BME280;29709;52.396;16.796;2024-02-26T15:52:46;100777.91;;;13.20;63.13
44044;BME280;29709;52.396;16.796;2024-02-26T15:56:00;100774.65;;;13.17;62.83
44044;BME280;29709;52.396;16.796;2024-02-26T15:59:13;100779.51;;;13.15;63.07
44044;BME280;29709;52.396;16.796;2024-02-26T16:02:27;100783.85;;;13.09;62.91
44044;BME280;29709;52.396;16.796;2024-02-26T16:05:40;100782.61;;;13.12;63.50
44044;BME280;29709;52.396;16.796;2024-02-26T16:08:54;100787.66;;;13.08;63.43
44044;BME280;29709;52.396;16.796;2024-02-26T16:12:20;100789.36;;;13.09;63.27
44044;BME280;29709;52.396;16.796;2024-02-26T16:15:36;100788.04;;;13.05;63.36
44044;BME280;29709;52.396;16.796;2024-02-26T16:18:50;100793.90;;;13.02;63.63
44044;BME280;29709;52.396;16.796;2024-02-26T16:22:04;100799.98;;;12.97;63.90
44044;BME280;29709;52.396;16.796;2024-02-26T16:25:17;100798.13;;;12.90;63.94
44044;BME280;29709;52.396;16.796;2024-02-26T16:28:33;100807.69;;;12.79;64.09
44044;BME280;29709;52.396;16.796;2024-02-26T16:35:31;100816.20;;;12.69;64.59
44044;BME280;29709;52.396;16.796;2024-02-26T16:38:45;100809.48;;;12.72;64.53
44044;BME280;29709;52.396;16.796;2024-02-26T16:41:59;100819.66;;;12.71;64.24
44044;BME280;29709;52.396;16.796;2024-02-26T16:45:12;100814.86;;;12.65;64.26
44044;BME280;29709;52.396;16.796;2024-02-26T16:48:26;100826.08;;;12.64;64.74
44044;BME280;29709;52.396;16.796;2024-02-26T16:51:39;100832.10;;;12.59;64.65
44044;BME280;29709;52.396;16.796;2024-02-26T16:54:55;100831.62;;;12.56;65.02
44044;BME280;29709;52.396;16.796;2024-02-26T16:58:08;100831.99;;;12.53;65.18
44044;BME280;29709;52.396;16.796;2024-02-26T17:01:21;100827.19;;;12.47;65.11